createdAt,value
2018-03-26T00:01:12.181Z,100399.25
2018-03-26T00:03:39.397Z,100400.10
2018-03-26T00:06:05.873Z,100401.44
2018-03-26T00:08:32.338Z,100401.38
2018-03-26T00:10:58.851Z,100400.53
2018-03-26T00:13:25.317Z,100404.56
2018-03-26T00:15:51.807Z,100405.41
2018-03-26T00:18:18.263Z,100401.91
2018-03-26T00:20:44.758Z,100399.25
2018-03-26T00:23:11.994Z,100401.00
2018-03-26T00:25:38.443Z,100405.84
2018-03-26T00:28:04.940Z,100409.40
2018-03-26T00:30:31.406Z,100401.38
2018-03-26T00:32:58.654Z,100397.40
2018-03-26T00:35:25.122Z,100400.10
2018-03-26T00:37:51.608Z,100405.79
2018-03-26T00:40:18.838Z,100402.70
2018-03-26T00:42:45.323Z,100400.95
2018-03-26T00:45:11.780Z,100400.10
2018-03-26T00:47:38.283Z,100406.27
2018-03-26T00:50:04.743Z,100407.58
2018-03-26T00:52:31.243Z,100411.16
2018-03-26T00:54:57.713Z,100408.50
2018-03-26T00:57:24.200Z,100408.50
2018-03-26T00:59:51.451Z,100407.59
2018-03-26T01:02:17.922Z,100410.67
2018-03-26T01:04:45.157Z,100419.12
2018-03-26T01:07:11.634Z,100414.66
2018-03-26T01:09:38.110Z,100417.79
2018-03-26T01:12:04.587Z,100412.05
2018-03-26T01:14:31.825Z,100419.55
2018-03-26T01:16:58.311Z,100417.36
2018-03-26T01:19:25.577Z,100425.76
2018-03-26T01:21:52.830Z,100429.27
2018-03-26T01:24:19.319Z,100421.34
2018-03-26T01:26:46.557Z,100427.56
2018-03-26T01:29:13.050Z,100436.78
2018-03-26T01:31:40.287Z,100431.48
2018-03-26T01:34:06.780Z,100433.23
2018-03-26T01:36:33.232Z,100439.89
2018-03-26T01:38:59.681Z,100445.12
2018-03-26T01:41:26.181Z,100447.41
2018-03-26T01:43:52.638Z,100450.91
2018-03-26T01:46:19.144Z,100454.05
2018-03-26T01:48:45.617Z,100462.44
2018-03-26T01:51:12.101Z,100463.77
2018-03-26T01:53:39.324Z,100464.67
2018-03-26T01:56:05.775Z,100460.69
2018-03-26T01:58:32.255Z,100464.67
2018-03-26T02:00:58.728Z,100473.08
2018-03-26T02:03:25.225Z,100470.85
2018-03-26T02:05:51.685Z,100471.33
2018-03-26T02:08:18.178Z,100478.44
2018-03-26T02:10:44.624Z,100485.45
2018-03-26T02:13:11.111Z,100484.61
2018-03-26T02:15:37.596Z,100489.02
2018-03-26T02:18:04.844Z,100491.67
2018-03-26T02:20:31.336Z,100491.67
2018-03-26T02:22:58.562Z,100490.82
2018-03-26T02:25:25.048Z,100497.87
2018-03-26T02:27:51.510Z,100497.41
2018-03-26T02:30:18.800Z,100499.22
2018-03-26T02:32:46.027Z,100500.52
2018-03-26T02:35:12.474Z,100498.31
2018-03-26T02:37:38.977Z,100502.30
2018-03-26T02:40:05.452Z,100506.27
2018-03-26T02:42:32.702Z,100504.05
2018-03-26T02:44:59.165Z,100512.02
2018-03-26T02:47:25.642Z,100504.51
2018-03-26T02:49:52.892Z,100510.26
2018-03-26T02:52:19.343Z,100510.26
2018-03-26T02:54:45.844Z,100512.47
2018-03-26T02:57:12.339Z,100510.26
2018-03-26T02:59:38.801Z,100517.31
2018-03-26T03:02:05.314Z,100519.11
2018-03-26T03:04:32.535Z,100520.44
2018-03-26T03:06:59.015Z,100523.52
2018-03-26T03:09:25.528Z,100523.09
2018-03-26T03:11:52.760Z,100527.52
2018-03-26T03:14:19.223Z,100524.42
2018-03-26T03:16:45.740Z,100526.17
2018-03-26T03:19:12.231Z,100528.41
2018-03-26T03:21:38.694Z,100529.28
2018-03-26T03:24:05.168Z,100523.97
2018-03-26T03:26:32.388Z,100527.95
2018-03-26T03:28:58.929Z,100532.39
2018-03-26T03:31:25.377Z,100538.14
2018-03-26T03:33:52.605Z,100532.83
2018-03-26T03:36:19.094Z,100542.97
2018-03-26T03:38:46.337Z,100542.55
2018-03-26T03:41:12.846Z,100542.11
2018-03-26T03:43:39.302Z,100543.44
2018-03-26T03:46:05.785Z,100541.23
2018-03-26T03:48:32.276Z,100545.19
2018-03-26T03:50:58.734Z,100547.00
2018-03-26T03:53:25.241Z,100548.33
2018-03-26T03:55:51.703Z,100542.97
2018-03-26T03:58:18.205Z,100543.39
2018-03-26T04:00:44.653Z,100545.67
2018-03-26T04:03:11.100Z,100543.44
2018-03-26T04:05:37.590Z,100544.77
2018-03-26T04:08:04.051Z,100548.33
2018-03-26T04:10:30.527Z,100546.05
2018-03-26T04:12:56.990Z,100557.57
2018-03-26T04:15:23.498Z,100556.30
2018-03-26T04:17:49.971Z,100557.16
2018-03-26T04:20:16.440Z,100559.80
2018-03-26T04:22:42.939Z,100558.90
2018-03-26T04:25:10.166Z,100566.02
2018-03-26T04:27:36.650Z,100563.78
2018-03-26T04:30:03.124Z,100561.08
2018-03-26T04:32:30.382Z,100569.47
2018-03-26T04:34:56.859Z,100567.72
2018-03-26T04:37:24.100Z,100567.72
2018-03-26T04:39:50.591Z,100569.05
2018-03-26T04:42:17.851Z,100571.70
2018-03-26T04:44:44.344Z,100575.69
2018-03-26T04:47:11.571Z,100575.20
2018-03-26T04:49:38.079Z,100574.83
2018-03-26T04:52:05.307Z,100577.91
2018-03-26T04:54:31.778Z,100580.14
2018-03-26T04:56:58.266Z,100576.16
2018-03-26T04:59:25.501Z,100572.60
2018-03-26T05:01:51.984Z,100576.16
2018-03-26T05:04:18.437Z,100577.80
2018-03-26T05:06:44.900Z,100583.34
2018-03-26T05:09:11.407Z,100583.66
2018-03-26T05:11:37.904Z,100582.45
2018-03-26T05:14:04.401Z,100580.13
2018-03-26T05:16:31.626Z,100581.30
2018-03-26T05:18:58.127Z,100577.66
2018-03-26T05:21:24.596Z,100583.39
2018-03-26T05:23:51.840Z,100582.97
2018-03-26T05:26:18.294Z,100589.13
2018-03-26T05:28:44.758Z,100598.42
2018-03-26T05:31:11.232Z,100598.42
2018-03-26T05:33:38.453Z,100598.84
2018-03-26T05:36:04.942Z,100600.66
2018-03-26T05:38:31.407Z,100606.77
2018-03-26T05:40:57.871Z,100609.05
2018-03-26T05:43:24.355Z,100618.24
2018-03-26T05:45:51.576Z,100622.70
2018-03-26T05:48:18.062Z,100630.67
2018-03-26T05:50:44.531Z,100632.00
2018-03-26T05:53:11.016Z,100631.57
2018-03-26T05:55:37.517Z,100641.30
2018-03-26T05:58:03.982Z,100643.09
2018-03-26T06:00:30.474Z,100641.34
2018-03-26T06:02:57.705Z,100648.00
2018-03-26T06:05:24.182Z,100655.78
2018-03-26T06:07:50.995Z,100657.37
2018-03-26T06:10:17.467Z,100651.27
2018-03-26T06:12:43.974Z,100658.91
2018-03-26T06:15:10.455Z,100665.38
2018-03-26T06:17:37.720Z,100661.27
2018-03-26T06:20:04.183Z,100666.40
2018-03-26T06:22:31.407Z,100663.94
2018-03-26T06:24:57.939Z,100666.48
2018-03-26T06:27:25.146Z,100670.83
2018-03-26T06:29:51.613Z,100672.15
2018-03-26T06:32:18.069Z,100671.25
2018-03-26T06:34:44.577Z,100677.89
2018-03-26T06:37:11.808Z,100680.87
2018-03-26T06:39:38.266Z,100680.92
2018-03-26T06:42:04.747Z,100689.80
2018-03-26T06:44:31.223Z,100690.22
2018-03-26T06:46:58.478Z,100697.06
2018-03-26T06:49:24.963Z,100695.84
2018-03-26T06:51:52.235Z,100701.58
2018-03-26T06:54:19.492Z,100703.23
2018-03-26T06:56:45.989Z,100712.22
2018-03-26T06:59:13.244Z,100712.20
2018-03-26T07:01:40.508Z,100710.98
2018-03-26T07:04:07.016Z,100713.95
2018-03-26T07:06:33.471Z,100715.28
2018-03-26T07:08:59.941Z,100716.99
2018-03-26T07:11:26.447Z,100718.26
2018-03-26T07:13:52.909Z,100716.08
2018-03-26T07:16:19.431Z,100713.84
2018-03-26T07:18:45.901Z,100719.54
2018-03-26T07:21:12.350Z,100723.52
2018-03-26T07:23:38.855Z,100722.24
2018-03-26T07:26:06.086Z,100726.66
2018-03-26T07:28:32.569Z,100728.83
2018-03-26T07:30:59.031Z,100730.64
2018-03-26T07:33:25.503Z,100733.24
2018-03-26T07:35:52.754Z,100735.95
2018-03-26T07:38:19.238Z,100735.95
2018-03-26T07:40:46.511Z,100736.38
2018-03-26T07:43:13.758Z,100738.55
2018-03-26T07:45:40.207Z,100745.63
2018-03-26T07:48:06.696Z,100741.21
2018-03-26T07:50:33.158Z,100736.75
2018-03-26T07:52:59.628Z,100742.53
2018-03-26T07:55:26.881Z,100738.98
2018-03-26T07:57:53.387Z,100735.42
2018-03-26T08:00:19.847Z,100740.30
2018-03-26T08:02:46.300Z,100744.28
2018-03-26T08:05:12.787Z,100749.61
2018-03-26T08:07:39.263Z,100754.91
2018-03-26T08:10:05.741Z,100750.13
2018-03-26T08:12:32.991Z,100753.16
2018-03-26T08:14:59.464Z,100752.26
2018-03-26T08:17:25.932Z,100758.47
2018-03-26T08:19:52.413Z,100759.80
2018-03-26T08:22:18.921Z,100765.95
2018-03-26T08:24:45.395Z,100765.95
2018-03-26T08:27:11.866Z,100772.16
2018-03-26T08:29:38.346Z,100770.83
2018-03-26T08:32:04.822Z,100774.39
2018-03-26T08:34:31.319Z,100772.16
2018-03-26T08:36:57.769Z,100770.84
2018-03-26T08:39:24.241Z,100774.81
2018-03-26T08:41:50.740Z,100775.25
2018-03-26T08:44:17.186Z,100771.73
2018-03-26T08:46:44.469Z,100776.57
2018-03-26T08:49:11.718Z,100779.66
2018-03-26T08:51:38.171Z,100777.42
2018-03-26T08:54:04.661Z,100773.44
2018-03-26T08:56:31.917Z,100773.44
2018-03-26T08:58:58.400Z,100771.69
2018-03-26T09:01:25.638Z,100773.02
2018-03-26T09:03:52.102Z,100772.12
2018-03-26T09:06:18.619Z,100771.69
2018-03-26T09:08:45.086Z,100769.50
2018-03-26T09:11:11.575Z,100773.02
2018-03-26T09:13:38.053Z,100777.05
2018-03-26T09:16:04.510Z,100778.38
2018-03-26T09:18:31.006Z,100781.89
2018-03-26T09:20:57.458Z,100773.91
2018-03-26T09:23:23.961Z,100775.72
2018-03-26T09:25:50.428Z,100772.16
2018-03-26T09:28:16.890Z,100768.79
2018-03-26T09:30:43.375Z,100772.48
2018-03-26T09:33:10.604Z,100780.83
2018-03-26T09:35:37.125Z,100772.74
2018-03-26T09:38:03.607Z,100768.72
2018-03-26T09:40:30.126Z,100767.77
2018-03-26T09:42:56.612Z,100770.84
2018-03-26T09:45:23.076Z,100774.41
2018-03-26T09:47:49.553Z,100780.13
2018-03-26T09:50:16.049Z,100776.14
2018-03-26T09:52:43.332Z,100773.06
2018-03-26T09:55:10.576Z,100770.83
2018-03-26T09:57:37.025Z,100776.09
2018-03-26T10:00:04.503Z,100776.57
2018-03-26T10:02:30.966Z,100779.70
2018-03-26T10:04:57.550Z,100788.52
2018-03-26T10:07:24.008Z,100783.36
2018-03-26T10:09:50.463Z,100785.92
2018-03-26T10:12:16.935Z,100785.08
2018-03-26T10:14:44.182Z,100782.89
2018-03-26T10:17:10.679Z,100786.36
2018-03-26T10:19:37.917Z,100782.37
2018-03-26T10:22:04.382Z,100781.52
2018-03-26T10:24:30.848Z,100783.70
2018-03-26T10:26:57.314Z,100788.11
2018-03-26T10:29:23.816Z,100785.45
2018-03-26T10:31:50.289Z,100784.12
2018-03-26T10:34:16.747Z,100781.89
2018-03-26T10:36:43.245Z,100786.77
2018-03-26T10:39:10.469Z,100788.52
2018-03-26T10:41:36.948Z,100790.75
2018-03-26T10:44:03.400Z,100787.67
2018-03-26T10:46:29.870Z,100782.37
2018-03-26T10:48:56.360Z,100781.03
2018-03-26T10:51:22.806Z,100781.03
2018-03-26T10:53:49.319Z,100791.98
2018-03-26T10:56:15.778Z,100784.11
2018-03-26T10:58:42.243Z,100786.72
2018-03-26T11:01:08.741Z,100789.80
2018-03-26T11:03:35.192Z,100793.05
2018-03-26T11:06:01.677Z,100795.16
2018-03-26T11:08:28.911Z,100787.93
2018-03-26T11:10:55.362Z,100789.89
2018-03-26T11:13:21.851Z,100789.64
2018-03-26T11:15:48.301Z,100790.27
2018-03-26T11:18:14.804Z,100791.75
2018-03-26T11:20:41.279Z,100789.17
2018-03-26T11:23:07.756Z,100778.11
2018-03-26T11:25:34.233Z,100777.91
2018-03-26T11:28:00.710Z,100780.45
2018-03-26T11:30:27.253Z,100783.48
2018-03-26T11:32:53.712Z,100786.08
2018-03-26T11:35:20.189Z,100789.16
2018-03-26T11:37:46.700Z,100789.16
2018-03-26T11:40:13.163Z,100794.41
2018-03-26T11:42:39.669Z,100793.10
2018-03-26T11:45:06.141Z,100794.09
2018-03-26T11:47:33.368Z,100791.81
2018-03-26T11:49:59.865Z,100794.42
2018-03-26T11:52:26.324Z,100791.34
2018-03-26T11:54:52.819Z,100794.42
2018-03-26T11:57:19.294Z,100792.20
2018-03-26T11:59:45.760Z,100797.92
2018-03-26T12:02:12.301Z,100797.88
2018-03-26T12:04:38.751Z,100793.98
2018-03-26T12:07:05.241Z,100789.55
2018-03-26T12:09:31.693Z,100788.63
2018-03-26T12:11:58.200Z,100787.77
2018-03-26T12:14:25.434Z,100793.52
2018-03-26T12:16:51.895Z,100793.52
2018-03-26T12:19:18.388Z,100792.66
2018-03-26T12:21:44.851Z,100793.47
2018-03-26T12:24:12.121Z,100786.88
2018-03-26T12:26:38.579Z,100792.09
2018-03-26T12:29:05.043Z,100790.34
2018-03-26T12:31:32.309Z,100787.45
2018-03-26T12:33:58.764Z,100782.47
2018-03-26T12:36:25.252Z,100782.89
2018-03-26T12:38:52.507Z,100791.71
2018-03-26T12:41:19.005Z,100787.25
2018-03-26T12:43:45.742Z,100790.77
2018-03-26T12:46:13.001Z,100783.70
2018-03-26T12:48:39.465Z,100792.52
2018-03-26T12:51:05.962Z,100792.98
2018-03-26T12:53:32.420Z,100795.17
2018-03-26T12:55:58.924Z,100794.30
2018-03-26T12:58:25.394Z,100796.50
2018-03-26T13:00:51.870Z,100794.73
2018-03-26T13:03:19.105Z,100796.06
2018-03-26T13:05:45.638Z,100791.19
2018-03-26T13:08:12.120Z,100792.50
2018-03-26T13:10:38.589Z,100796.06
2018-03-26T13:13:05.038Z,100794.69
2018-03-26T13:15:31.489Z,100795.16
2018-03-26T13:17:57.956Z,100797.34
2018-03-26T13:20:24.420Z,100792.50
2018-03-26T13:22:50.913Z,100790.28
2018-03-26T13:25:18.150Z,100792.93
2018-03-26T13:27:44.591Z,100784.06
2018-03-26T13:30:11.040Z,100791.61
2018-03-26T13:32:37.534Z,100798.20
2018-03-26T13:35:04.018Z,100803.03
2018-03-26T13:37:31.260Z,100795.53
2018-03-26T13:39:57.727Z,100794.00
2018-03-26T13:42:24.205Z,100797.06
2018-03-26T13:44:51.417Z,100794.80
2018-03-26T13:47:17.902Z,100787.30
2018-03-26T13:49:44.461Z,100796.17
2018-03-26T13:52:10.927Z,100795.70
2018-03-26T13:54:37.392Z,100790.34
2018-03-26T13:57:03.851Z,100794.37
2018-03-26T13:59:30.330Z,100794.80
2018-03-26T14:01:56.799Z,100793.52
2018-03-26T14:04:24.028Z,100792.19
2018-03-26T14:06:50.494Z,100793.08
2018-03-26T14:09:16.968Z,100797.92
2018-03-26T14:11:43.444Z,100800.11
2018-03-26T14:14:09.907Z,100796.17
2018-03-26T14:16:36.433Z,100800.58
2018-03-26T14:19:02.928Z,100806.74
2018-03-26T14:21:30.166Z,100806.31
2018-03-26T14:23:56.650Z,100802.38
2018-03-26T14:26:23.145Z,100809.40
2018-03-26T14:28:49.635Z,100810.30
2018-03-26T14:31:16.122Z,100810.73
2018-03-26T14:33:42.625Z,100809.83
2018-03-26T14:36:09.109Z,100807.64
2018-03-26T14:38:35.639Z,100808.07
2018-03-26T14:41:02.149Z,100810.25
2018-03-26T14:43:28.615Z,100813.32
2018-03-26T14:45:55.083Z,100815.55
2018-03-26T14:48:21.562Z,100813.11
2018-03-26T14:50:48.826Z,100814.44
2018-03-26T14:53:16.056Z,100809.46
2018-03-26T14:55:42.521Z,100814.33
2018-03-26T14:58:09.016Z,100808.12
2018-03-26T15:00:35.516Z,100812.05
2018-03-26T15:03:01.996Z,100814.28
2018-03-26T15:05:28.449Z,100807.59
2018-03-26T15:07:54.925Z,100813.81
2018-03-26T15:10:21.409Z,100817.32
2018-03-26T15:12:47.911Z,100819.97
2018-03-26T15:15:14.387Z,100820.08
2018-03-26T15:17:41.549Z,100819.38
2018-03-26T15:20:08.106Z,100824.52
2018-03-26T15:22:34.599Z,100826.70
2018-03-26T15:25:01.063Z,100824.95
2018-03-26T15:27:27.642Z,100816.94
2018-03-26T15:29:54.021Z,100820.02
2018-03-26T15:32:20.496Z,100826.66
2018-03-26T15:34:47.289Z,100823.84
2018-03-26T15:37:13.793Z,100828.46
2018-03-26T15:39:41.249Z,100823.95
2018-03-26T15:42:09.248Z,100826.13
2018-03-26T15:44:35.865Z,100820.77
2018-03-26T15:47:04.994Z,100819.02
2018-03-26T15:49:31.965Z,100819.48
2018-03-26T15:51:58.477Z,100818.59
2018-03-26T15:54:25.711Z,100816.78
2018-03-26T15:56:52.176Z,100821.67
2018-03-26T15:59:18.713Z,100823.85
2018-03-26T16:01:45.190Z,100826.94
2018-03-26T16:04:11.650Z,100821.62
2018-03-26T16:06:38.121Z,100825.66
2018-03-26T16:09:04.602Z,100832.72
2018-03-26T16:11:31.280Z,100830.05
2018-03-26T16:13:57.922Z,100825.17
2018-03-26T16:16:24.384Z,100830.49
2018-03-26T16:18:50.978Z,100833.13
2018-03-26T16:21:17.455Z,100836.69
2018-03-26T16:23:43.918Z,100838.02
2018-03-26T16:26:10.397Z,100839.34
2018-03-26T16:28:37.064Z,100842.44
2018-03-26T16:31:03.620Z,100840.48
2018-03-26T16:33:30.102Z,100839.63
2018-03-26T16:35:56.606Z,100834.80
2018-03-26T16:38:23.096Z,100844.94
2018-03-26T16:40:49.571Z,100842.34
2018-03-26T16:43:16.075Z,100842.38
2018-03-26T16:45:42.793Z,100839.73
2018-03-26T16:48:10.404Z,100843.23
2018-03-26T16:50:37.012Z,100843.71
2018-03-26T16:53:03.967Z,100841.91
2018-03-26T16:55:30.544Z,100846.32
2018-03-26T16:57:57.135Z,100839.73
2018-03-26T17:00:23.900Z,100835.75
2018-03-26T17:02:50.674Z,100839.68
2018-03-26T17:05:17.212Z,100841.42
2018-03-26T17:07:45.054Z,100839.24
2018-03-26T17:10:12.755Z,100837.03
2018-03-26T17:12:39.724Z,100835.26
2018-03-26T17:15:06.662Z,100833.04
2018-03-26T17:17:33.731Z,100832.60
2018-03-26T17:20:00.530Z,100831.72
2018-03-26T17:22:27.454Z,100833.47
2018-03-26T17:24:54.329Z,100834.38
2018-03-26T17:27:21.155Z,100833.47
2018-03-26T17:29:48.794Z,100835.70
2018-03-26T17:32:16.636Z,100837.91
2018-03-26T17:34:43.622Z,100839.67
2018-03-26T17:37:10.806Z,100844.98
2018-03-26T17:39:37.898Z,100844.08
2018-03-26T17:42:04.953Z,100837.02
2018-03-26T17:44:32.014Z,100838.78
2018-03-26T17:46:59.082Z,100827.30
2018-03-26T17:49:26.173Z,100827.72
2018-03-26T17:51:53.237Z,100835.26
2018-03-26T17:54:20.314Z,100835.69
2018-03-26T17:56:47.267Z,100838.77
2018-03-26T17:59:14.416Z,100833.93
2018-03-26T18:01:41.467Z,100834.36
2018-03-26T18:04:09.412Z,100837.02
2018-03-26T18:06:36.530Z,100840.52
2018-03-26T18:09:04.520Z,100840.56
2018-03-26T18:11:33.164Z,100850.72
2018-03-26T18:14:00.182Z,100856.45
2018-03-26T18:16:27.383Z,100852.47
2018-03-26T18:18:55.261Z,100853.38
2018-03-26T18:21:22.418Z,100853.80
2018-03-26T18:23:49.491Z,100851.62
2018-03-26T18:26:16.563Z,100848.06
2018-03-26T18:28:43.781Z,100849.82
2018-03-26T18:31:10.894Z,100852.00
2018-03-26T18:33:38.102Z,100848.48
2018-03-26T18:36:05.169Z,100855.09
2018-03-26T18:38:32.436Z,100855.09
2018-03-26T18:40:59.702Z,100852.00
2018-03-26T18:43:26.814Z,100851.53
2018-03-26T18:45:54.762Z,100850.25
2018-03-26T18:48:21.815Z,100853.33
2018-03-26T18:50:49.044Z,100849.82
2018-03-26T18:53:16.912Z,100848.45
2018-03-26T18:55:44.042Z,100854.66
2018-03-26T18:58:12.218Z,100849.82
2018-03-26T19:00:40.067Z,100847.59
2018-03-26T19:03:07.476Z,100850.67
2018-03-26T19:05:34.572Z,100852.86
2018-03-26T19:08:01.612Z,100854.18
2018-03-26T19:10:28.686Z,100850.61
2018-03-26T19:12:55.789Z,100850.20
2018-03-26T19:15:22.889Z,100851.95
2018-03-26T19:17:49.965Z,100846.27
2018-03-26T19:20:17.025Z,100849.77
2018-03-26T19:22:44.135Z,100855.07
2018-03-26T19:25:12.223Z,100854.18
2018-03-26T19:27:39.313Z,100855.94
2018-03-26T19:30:06.453Z,100858.16
2018-03-26T19:32:33.549Z,100861.23
2018-03-26T19:35:00.618Z,100861.25
2018-03-26T19:37:27.597Z,100856.40
2018-03-26T19:39:54.688Z,100866.12
2018-03-26T19:42:21.762Z,100864.80
2018-03-26T19:44:48.808Z,100861.25
2018-03-26T19:47:15.902Z,100864.36
2018-03-26T19:49:42.950Z,100860.81
2018-03-26T19:52:10.909Z,100863.89
2018-03-26T19:54:37.991Z,100863.04
2018-03-26T19:57:05.228Z,100859.91
2018-03-26T19:59:32.312Z,100860.81
2018-03-26T20:01:59.399Z,100864.80
2018-03-26T20:04:27.649Z,100865.23
2018-03-26T20:06:55.603Z,100866.14
2018-03-26T20:09:22.643Z,100870.55
2018-03-26T20:11:50.503Z,100874.10
2018-03-26T20:14:17.585Z,100876.32
2018-03-26T20:16:44.670Z,100878.07
2018-03-26T20:19:12.651Z,100884.23
2018-03-26T20:21:39.714Z,100887.25
2018-03-26T20:24:06.816Z,100899.20
2018-03-26T20:26:34.015Z,100908.34
2018-03-26T20:29:01.056Z,100913.14
2018-03-26T20:31:28.396Z,100920.67
2018-03-26T20:33:55.472Z,100923.33
2018-03-26T20:36:22.691Z,100919.77
2018-03-26T20:38:50.548Z,100926.84
2018-03-26T20:41:17.628Z,100930.82
2018-03-26T20:43:44.863Z,100929.06
2018-03-26T20:46:11.963Z,100925.55
2018-03-26T20:48:39.036Z,100918.45
2018-03-26T20:51:06.253Z,100922.42
2018-03-26T20:53:34.119Z,100921.58
2018-03-26T20:56:01.331Z,100919.77
2018-03-26T20:58:29.223Z,100917.11
2018-03-26T21:00:57.060Z,100918.45
2018-03-26T21:03:24.337Z,100913.52
2018-03-26T21:05:52.243Z,100909.58
2018-03-26T21:08:19.466Z,100909.10
2018-03-26T21:10:46.565Z,100910.47
2018-03-26T21:13:13.784Z,100908.67
2018-03-26T21:15:40.982Z,100912.19
2018-03-26T21:18:08.842Z,100908.67
2018-03-26T21:20:36.013Z,100911.76
2018-03-26T21:23:03.079Z,100913.12
2018-03-26T21:25:30.305Z,100906.88
2018-03-26T21:27:57.328Z,100901.98
2018-03-26T21:30:24.407Z,100898.95
2018-03-26T21:32:51.661Z,100898.48
2018-03-26T21:35:18.774Z,100899.80
2018-03-26T21:37:45.994Z,100899.80
2018-03-26T21:40:13.030Z,100898.91
2018-03-26T21:42:40.972Z,100897.58
2018-03-26T21:45:08.020Z,100892.27
2018-03-26T21:47:35.780Z,100889.61
2018-03-26T21:50:02.985Z,100895.78
2018-03-26T21:52:29.937Z,100889.19
2018-03-26T21:54:56.916Z,100892.70
2018-03-26T21:57:24.793Z,100888.71
2018-03-26T21:59:52.555Z,100881.64
2018-03-26T22:02:19.578Z,100882.07
2018-03-26T22:04:46.931Z,100875.00
2018-03-26T22:07:13.535Z,100877.19
2018-03-26T22:09:40.415Z,100878.09
2018-03-26T22:12:07.061Z,100873.67
2018-03-26T22:14:33.538Z,100871.88
2018-03-26T22:17:00.233Z,100870.12
2018-03-26T22:19:27.569Z,100872.34
2018-03-26T22:21:54.060Z,100864.80
2018-03-26T22:24:20.530Z,100869.69
2018-03-26T22:26:47.776Z,100873.20
2018-03-26T22:29:14.300Z,100867.03
2018-03-26T22:31:40.799Z,100874.09
2018-03-26T22:34:07.268Z,100874.52
2018-03-26T22:36:33.757Z,100873.62
2018-03-26T22:39:01.100Z,100870.11
2018-03-26T22:41:27.580Z,100870.11
2018-03-26T22:43:54.784Z,100867.87
2018-03-26T22:46:21.260Z,100871.00
2018-03-26T22:48:47.830Z,100871.86
2018-03-26T22:51:14.296Z,100871.44
2018-03-26T22:53:40.769Z,100872.77
2018-03-26T22:56:07.231Z,100867.89
2018-03-26T22:58:33.721Z,100871.44
2018-03-26T23:01:00.246Z,100866.55
2018-03-26T23:03:26.736Z,100863.48
2018-03-26T23:05:54.009Z,100865.70
2018-03-26T23:08:21.226Z,100867.41
2018-03-26T23:10:47.963Z,100870.06
2018-03-26T23:13:14.494Z,100867.02
2018-03-26T23:15:40.968Z,100863.47
2018-03-26T23:18:08.203Z,100861.23
2018-03-26T23:20:34.661Z,100859.48
2018-03-26T23:23:01.141Z,100859.92
2018-03-26T23:25:28.382Z,100859.44
2018-03-26T23:27:54.884Z,100852.84
2018-03-26T23:30:21.348Z,100848.38
2018-03-26T23:32:48.580Z,100855.07
2018-03-26T23:35:15.063Z,100852.84
2018-03-26T23:37:41.537Z,100854.17
2018-03-26T23:40:08.031Z,100847.10
2018-03-26T23:42:34.501Z,100855.02
2018-03-26T23:45:00.980Z,100857.25
2018-03-26T23:47:27.441Z,100852.37
2018-03-26T23:49:53.903Z,100847.53
2018-03-26T23:52:20.383Z,100853.70
2018-03-26T23:54:46.854Z,100853.22
2018-03-26T23:57:14.102Z,100847.06
2018-03-26T23:59:40.696Z,100854.55
